Chapel Hill, NC (27514)

09:21 EST le 08 décembre 2016 (GMT -0500)
Murphy school rd. community | | Change Station

Alt. 509 ft 36.02 °N, 79.03 °W | Updated 34 minutes ago

Couvert
Couvert
47.6 ° F
Paraît 46 ° F
N
4.0
Vent Variable Vent de NNE

Aujourd'hui
Haut(e) -- | Bas -- ° F
--% Risque de précip.
Hier
Haut(e) -- | Bas -- ° F
Precip. -- pouce
Pression 30.09 pouce
Visibilité 10.0 Miles terrestres
Nuages Nuages épars 3700 ft
Couvert 4400 ft
Refroidissement éolien 46 ° F
Point de rosée 37 ° F
Humidité 68%
Précipitations 0.00 pouce
Profondeur de la couche neigeuse Non disponible.
7:14 AM 5:01 PM
Lune gibbeuse croissante, 63% visible
METAR KIGX 081356Z AUTO 31008KT 10SM SCT037 OVC044 09/03 A3009 RMK AO2 SLP189 T00890028
Pression 30.09 pouce
Visibilité 10.0 Miles terrestres
Nuages Nuages épars 3700 ft
Couvert 4400 ft
Refroidissement éolien 46 ° F
Point de rosée 37 ° F
Humidité 68%
Précipitations 0.00 pouce
Profondeur de la couche neigeuse Non disponible.
7:14 AM 5:01 PM
Lune gibbeuse croissante, 63% visible
METAR KIGX 081356Z AUTO 31008KT 10SM SCT037 OVC044 09/03 A3009 RMK AO2 SLP189 T00890028

10-Day Weather Forecast

Almanac

Astronomie

Dec. 08, 2016 Lever Coucher
Temps réel
Crépuscule civil
Crépuscule nautique
Crépuscule astronomique
Lune
Durée de lumière visible
Longueur du jour
Tomorrow will be .
, % of the Moon is Illuminated

Extrêmes aujourd'hui

State Highs State Lows

Community

WunderPhotos

Upload Photos

1,956,268 Photos téléchargées !

WunderBlog® & News

Nearby

Qualité de l'air

  Qualité de l'air Indice de la qualité de l'air Polluant
Not available.

Épaisseur de neige

Station Depth Altitude

Activité sismique

Ville Distance Mag. Time & Date
Minimum magnitude displayed is 2.5.

Températures des eaux côtières

Lieu Température

Stations

Stations météo à proximité

Emplacement de la station Température Refroidissement éolien Point de rosée Humidité Vent Precip. Alt. Mise à jour Type
                   

Watches & Warnings

There are currently no watches in effect.